Time;durP1;ratioP1;P1;durP2;ratioP2;P2;SDS_P1;SDS_P2;PMS_P1;PMS_P2;Temp;Humidity;BMP_temperature;BMP_pressure;BME280_temperature;BME280_humidity;BME280_pressure;Samples;Min_cycle;Max_cycle;Signal;HPM_P1;HPM_P2
2022/05/17 00:00:11;;;;;;;6.90;1.40;;;;;;;5.73;80.39;100543.20;104722;1274;73183;-69
2022/05/17 00:03:03;;;;;;;6.60;1.40;;;;;;;5.72;80.75;100539.05;104811;1274;59326;-67
2022/05/17 00:05:51;;;;;;;8.00;1.40;;;;;;;5.71;80.95;100545.42;104816;1275;61050;-68
2022/05/17 00:08:39;;;;;;;12.80;2.50;;;;;;;5.71;81.10;100549.65;104960;1274;71666;-68
2022/05/17 00:11:28;;;;;;;7.20;1.40;;;;;;;5.70;81.39;100548.12;104822;1274;69112;-68
2022/05/17 00:14:18;;;;;;;8.00;1.60;;;;;;;5.67;81.48;100550.38;104680;1274;73336;-69
2022/05/17 00:17:08;;;;;;;7.10;1.60;;;;;;;5.64;81.34;100551.41;104717;1274;59393;-69
2022/05/17 00:19:56;;;;;;;7.70;1.50;;;;;;;5.60;81.52;100554.07;104552;1274;60676;-69
2022/05/17 00:22:45;;;;;;;9.00;1.40;;;;;;;5.57;81.63;100554.94;104992;1274;72274;-69
2022/05/17 00:25:33;;;;;;;8.40;1.70;;;;;;;5.54;81.78;100558.25;104524;1274;68536;-70
2022/05/17 00:28:21;;;;;;;8.70;1.60;;;;;;;5.52;81.77;100556.07;104739;1274;73191;-71
2022/05/17 00:31:09;;;;;;;7.90;1.50;;;;;;;5.51;82.31;100555.91;104518;1274;60357;-69
2022/05/17 00:33:57;;;;;;;8.30;1.80;;;;;;;5.51;82.26;100549.77;104722;1274;60974;-69
2022/05/17 00:36:45;;;;;;;7.80;1.40;;;;;;;5.51;82.43;100548.36;104880;1274;71119;-69
2022/05/17 00:39:33;;;;;;;7.20;1.40;;;;;;;5.51;82.35;100548.38;104801;1274;68615;-67
2022/05/17 00:42:22;;;;;;;6.60;1.20;;;;;;;5.49;82.43;100553.39;104768;1274;73117;-70
2022/05/17 00:45:11;;;;;;;5.80;1.40;;;;;;;5.46;82.38;100550.34;104783;1274;59276;-65
2022/05/17 00:48:06;;;;;;;7.50;1.30;;;;;;;5.45;82.53;100546.71;104748;1274;62218;-63
2022/05/17 00:50:55;;;;;;;6.50;1.40;;;;;;;5.40;82.40;100540.08;104946;1274;71880;-64
2022/05/17 00:53:45;;;;;;;6.30;1.70;;;;;;;5.35;82.77;100540.84;104825;1274;68590;-69
2022/05/17 00:56:38;;;;;;;6.10;1.50;;;;;;;5.30;82.67;100537.58;104552;1274;73593;-70
2022/05/17 00:59:26;;;;;;;7.70;1.50;;;;;;;5.26;82.55;100531.97;104871;1274;59386;-63
2022/05/17 01:02:14;;;;;;;7.50;2.20;;;;;;;5.22;82.77;100533.20;104702;1274;59301;-69
2022/05/17 01:05:04;;;;;;;6.30;1.70;;;;;;;5.20;82.86;100529.77;104739;1274;69874;-69
2022/05/17 01:07:57;;;;;;;6.00;1.40;;;;;;;5.19;82.96;100530.52;104838;1274;68766;-68
2022/05/17 01:10:45;;;;;;;6.40;1.80;;;;;;;5.19;83.13;100527.90;104567;1275;73094;-68
2022/05/17 01:16:40;;;;;;;7.70;1.70;;;;;;;5.19;82.97;100526.49;104710;1276;62100;-71
2022/05/17 01:19:28;;;;;;;6.50;1.70;;;;;;;5.18;83.26;100525.48;104677;1276;70875;-69
2022/05/17 01:22:17;;;;;;;11.10;3.40;;;;;;;5.15;83.09;100524.73;104620;1276;67453;-69
2022/05/17 01:25:05;;;;;;;15.80;5.30;;;;;;;5.12;83.10;100524.73;104455;1276;74433;-69
2022/05/17 01:28:07;;;;;;;17.20;5.20;;;;;;;5.05;83.20;100524.48;104368;1276;59617;-71
2022/05/17 01:31:03;;;;;;;8.80;2.80;;;;;;;5.00;83.45;100527.54;104527;1276;59589;-69
2022/05/17 01:33:51;;;;;;;7.70;1.90;;;;;;;4.95;83.23;100530.93;104782;1276;72419;-69
2022/05/17 01:36:40;;;;;;;6.20;1.50;;;;;;;4.92;83.35;100534.25;105303;1276;69811;-63
2022/05/17 01:39:29;;;;;;;6.20;1.50;;;;;;;4.89;83.32;100533.16;105297;1277;73464;-69
2022/05/17 01:42:17;;;;;;;6.40;1.50;;;;;;;4.85;82.93;100536.86;104637;1276;59354;-69
2022/05/17 01:45:06;;;;;;;7.00;1.60;;;;;;;4.81;83.01;100541.27;104781;1274;62117;-68
2022/05/17 01:47:54;;;;;;;7.70;1.70;;;;;;;4.75;82.89;100542.42;104678;1274;71875;-69
2022/05/17 01:50:43;;;;;;;9.00;1.80;;;;;;;4.67;83.12;100539.25;104726;1274;69398;-69
2022/05/17 01:53:31;;;;;;;7.40;1.70;;;;;;;4.59;83.26;100539.64;104532;1274;74511;-67
2022/05/17 01:56:19;;;;;;;7.00;1.80;;;;;;;4.53;83.48;100539.52;104897;1274;59312;-67
2022/05/17 01:59:07;;;;;;;8.60;2.10;;;;;;;4.48;84.07;100546.29;104698;1274;59439;-67
2022/05/17 02:01:55;;;;;;;7.40;1.80;;;;;;;4.43;84.19;100542.27;104711;1274;73054;-67
2022/05/17 02:04:45;;;;;;;6.70;1.70;;;;;;;4.39;84.48;100541.02;104879;1274;67527;-67
2022/05/17 02:07:34;;;;;;;8.70;2.00;;;;;;;4.38;84.57;100544.24;104715;1274;74402;-68
2022/05/17 02:10:25;;;;;;;6.90;2.10;;;;;;;4.38;84.74;100542.67;104880;1274;60251;-67
2022/05/17 02:13:18;;;;;;;8.50;2.10;;;;;;;4.38;84.96;100544.59;104833;1275;59315;-69
2022/05/17 02:16:10;;;;;;;10.00;2.30;;;;;;;4.41;84.97;100541.51;104759;1274;73569;-68
2022/05/17 02:19:00;;;;;;;5.40;1.60;;;;;;;4.43;85.15;100543.85;104742;1275;68789;-69
2022/05/17 02:21:48;;;;;;;6.30;1.70;;;;;;;4.47;84.97;100543.33;104940;1274;72496;-68
2022/05/17 02:24:36;;;;;;;6.00;1.90;;;;;;;4.47;84.89;100539.11;104943;1274;59391;-68
2022/05/17 02:27:24;;;;;;;8.70;2.00;;;;;;;4.51;85.29;100540.52;104716;1274;60437;-67
2022/05/17 02:30:13;;;;;;;6.50;1.60;;;;;;;4.54;85.14;100541.61;104751;1274;71427;-66
2022/05/17 02:33:01;;;;;;;8.30;1.80;;;;;;;4.55;84.91;100538.41;104695;1274;66949;-66
2022/05/17 02:35:50;;;;;;;7.20;1.70;;;;;;;4.57;85.06;100540.62;104702;1274;71637;-66
2022/05/17 02:38:38;;;;;;;7.30;2.10;;;;;;;4.59;84.93;100544.70;103985;1274;1003696;-64
2022/05/17 02:41:26;;;;;;;7.30;1.80;;;;;;;4.61;84.58;100540.07;104765;1274;60921;-65
2022/05/17 02:44:14;;;;;;;7.90;1.90;;;;;;;4.62;84.49;100538.77;104766;1274;72904;-62
2022/05/17 02:47:04;;;;;;;6.10;1.70;;;;;;;4.66;84.54;100539.84;104519;1274;68705;-65
2022/05/17 02:49:52;;;;;;;6.00;1.40;;;;;;;4.70;84.39;100549.70;104526;1274;73466;-67
2022/05/17 02:52:40;;;;;;;7.30;2.00;;;;;;;4.76;84.58;100552.59;104915;1274;59309;-67
2022/05/17 02:55:31;;;;;;;5.30;1.70;;;;;;;4.80;84.40;100553.64;104946;1274;59346;-67
2022/05/17 02:58:19;;;;;;;7.30;1.80;;;;;;;4.83;84.01;100553.32;104959;1274;73491;-68
2022/05/17 03:01:08;;;;;;;6.40;1.60;;;;;;;4.85;84.30;100557.27;104738;1274;69537;-68
2022/05/17 03:03:56;;;;;;;7.50;1.50;;;;;;;4.89;84.35;100556.05;104639;1275;74433;-68
2022/05/17 03:06:45;;;;;;;6.30;1.60;;;;;;;4.92;84.14;100556.23;104713;1274;59286;-67
2022/05/17 03:09:33;;;;;;;7.30;1.60;;;;;;;4.94;84.51;100556.83;104502;1275;60072;-68
2022/05/17 03:12:21;;;;;;;6.30;1.80;;;;;;;4.99;84.33;100558.02;104700;1274;72788;-68
2022/05/17 03:15:16;;;;;;;8.10;2.30;;;;;;;5.04;84.45;100565.16;104545;1274;69145;-68
2022/05/17 03:18:05;;;;;;;7.20;1.90;;;;;;;5.13;84.44;100566.34;104533;1274;73508;-65
2022/05/17 03:20:53;;;;;;;9.30;1.80;;;;;;;5.21;84.38;100566.30;104515;1274;59770;-66
2022/05/17 03:23:40;;;;;;;7.40;1.50;;;;;;;5.31;84.08;100565.30;104716;1274;61324;-67
2022/05/17 03:26:29;;;;;;;5.60;1.50;;;;;;;5.41;83.68;100565.89;104523;1274;72863;-65
2022/05/17 03:29:16;;;;;;;7.10;1.90;;;;;;;5.50;83.78;100561.42;104705;1274;69637;-66
2022/05/17 03:32:05;;;;;;;6.80;1.70;;;;;;;5.57;83.48;100566.55;104683;1274;73466;-64
2022/05/17 03:34:52;;;;;;;7.40;1.60;;;;;;;5.63;83.22;100571.15;105821;1274;59183;-69
2022/05/17 03:37:43;;;;;;;7.20;1.80;;;;;;;5.73;82.99;100571.02;104643;1274;59337;-67
2022/05/17 03:40:31;;;;;;;5.70;1.60;;;;;;;5.81;82.68;100568.34;104651;1274;73994;-66
2022/05/17 03:43:20;;;;;;;7.20;1.90;;;;;;;5.89;82.79;100569.91;104611;1274;68275;-67
2022/05/17 03:46:09;;;;;;;6.60;1.90;;;;;;;5.99;82.59;100570.84;104617;1274;73357;-65
2022/05/17 03:49:00;;;;;;;9.40;1.90;;;;;;;6.12;82.59;100570.73;104649;1274;59351;-65
2022/05/17 03:51:49;;;;;;;7.50;2.20;;;;;;;6.24;82.38;100566.20;104670;1274;60577;-68
2022/05/17 03:54:38;;;;;;;10.10;2.20;;;;;;;6.38;82.45;100566.38;104926;1274;71866;-67
2022/05/17 03:57:28;;;;;;;7.30;2.30;;;;;;;6.49;81.79;100571.08;104638;1274;68355;-68
2022/05/17 04:00:17;;;;;;;8.20;2.10;;;;;;;6.62;81.84;100572.87;104857;1274;72200;-65
2022/05/17 04:03:05;;;;;;;6.60;2.10;;;;;;;6.75;81.23;100573.05;105173;1273;59422;-66
2022/05/17 04:05:54;;;;;;;10.30;2.40;;;;;;;6.88;81.04;100572.55;104852;1273;60489;-67
2022/05/17 04:08:41;;;;;;;8.70;1.90;;;;;;;6.99;80.84;100573.02;104644;1274;72885;-64
2022/05/17 04:11:30;;;;;;;7.80;1.50;;;;;;;7.10;80.40;100572.05;105063;1273;69694;-64
2022/05/17 04:14:17;;;;;;;8.10;1.60;;;;;;;7.20;80.43;100570.27;104930;1274;71982;-65
2022/05/17 04:17:07;;;;;;;7.70;1.90;;;;;;;7.31;80.21;100571.07;104815;1273;60301;-64
2022/05/17 04:19:55;;;;;;;7.30;1.60;;;;;;;7.45;80.19;100570.29;103764;1276;1003138;-66
2022/05/17 04:22:49;;;;;;;5.90;1.40;;;;;;;7.60;80.08;100567.17;104619;1274;73927;-66
2022/05/17 04:25:36;;;;;;;7.50;1.70;;;;;;;7.78;79.91;100570.02;104658;1274;68911;-66
2022/05/17 04:28:25;;;;;;;7.70;1.40;;;;;;;7.95;79.34;100570.30;104683;1274;73436;-67
2022/05/17 04:31:13;;;;;;;6.70;1.30;;;;;;;8.10;78.97;100573.61;104730;1274;59257;-66
2022/05/17 04:34:03;;;;;;;9.60;1.90;;;;;;;8.23;78.56;100571.44;104709;1274;60886;-68
2022/05/17 04:36:52;;;;;;;7.00;1.70;;;;;;;8.36;78.43;100574.89;104994;1273;72894;-68
2022/05/17 04:39:41;;;;;;;8.30;1.80;;;;;;;8.45;77.95;100576.35;104774;1273;68423;-67
2022/05/17 04:42:29;;;;;;;7.10;1.70;;;;;;;8.51;77.41;100580.05;104906;1274;72097;-68
2022/05/17 04:45:17;;;;;;;7.90;1.90;;;;;;;8.57;77.12;100583.77;104771;1273;59215;-66
2022/05/17 04:48:06;;;;;;;6.20;1.60;;;;;;;8.60;76.97;100585.87;104725;1274;62032;-68
2022/05/17 04:50:55;;;;;;;6.50;1.60;;;;;;;8.71;76.99;100592.30;104622;1273;74003;-69
2022/05/17 04:53:47;;;;;;;7.10;1.60;;;;;;;9.08;76.36;100591.80;104657;1274;69225;-67
2022/05/17 04:56:37;;;;;;;7.40;1.50;;;;;;;9.49;74.92;100592.38;104736;1273;73381;-68
2022/05/17 04:59:25;;;;;;;6.70;1.50;;;;;;;9.76;74.28;100591.84;104579;1273;59201;-66
2022/05/17 05:02:13;;;;;;;9.00;1.60;;;;;;;10.13;72.75;100592.55;104758;1273;59519;-67
2022/05/17 05:05:03;;;;;;;6.20;1.50;;;;;;;10.45;71.60;100587.73;104752;1274;72814;-64
2022/05/17 05:07:52;;;;;;;6.30;1.30;;;;;;;10.65;69.75;100594.73;104689;1274;68668;-67
2022/05/17 05:10:42;;;;;;;5.80;1.30;;;;;;;10.81;69.40;100592.54;104734;1273;73346;-67
2022/05/17 05:13:32;;;;;;;6.30;1.60;;;;;;;11.03;68.05;100595.80;104567;1274;59275;-67
2022/05/17 05:16:21;;;;;;;6.20;1.30;;;;;;;11.57;65.56;100592.45;105082;1273;59423;-67
2022/05/17 05:19:09;;;;;;;8.00;1.90;;;;;;;11.92;62.42;100586.90;104789;1273;71205;-67
2022/05/17 05:21:58;;;;;;;7.40;2.50;;;;;;;12.20;60.46;100588.91;104701;1273;68540;-69
2022/05/17 05:24:46;;;;;;;8.00;1.90;;;;;;;12.74;58.56;100586.84;104957;1273;74502;-70
2022/05/17 05:27:37;;;;;;;7.60;1.70;;;;;;;12.87;57.28;100589.37;104679;1274;59757;-69
2022/05/17 05:30:26;;;;;;;6.90;1.50;;;;;;;12.71;56.64;100589.77;104820;1273;59538;-71
2022/05/17 05:33:14;;;;;;;7.80;1.70;;;;;;;12.58;57.38;100591.80;104713;1274;73077;-68
2022/05/17 05:36:02;;;;;;;7.30;1.70;;;;;;;12.67;57.52;100596.10;104714;1273;69569;-66
2022/05/17 05:38:51;;;;;;;6.90;1.50;;;;;;;13.06;56.98;100596.95;104702;1273;73247;-69
2022/05/17 05:41:39;;;;;;;7.90;1.50;;;;;;;13.60;55.13;100591.26;104781;1273;59675;-66
2022/05/17 05:44:27;;;;;;;8.30;2.30;;;;;;;14.00;53.91;100591.55;104690;1273;59298;-65
2022/05/17 05:47:14;;;;;;;9.70;2.00;;;;;;;14.48;52.27;100582.46;104770;1273;70661;-67
2022/05/17 05:50:04;;;;;;;9.00;2.10;;;;;;;14.99;51.44;100587.05;105037;1273;66969;-70
2022/05/17 05:53:11;;;;;;;7.80;1.90;;;;;;;15.84;48.99;100586.40;104531;1274;74480;-67
2022/05/17 05:56:01;;;;;;;7.30;1.50;;;;;;;16.66;47.13;100585.50;105382;1273;59301;-70
2022/05/17 05:58:49;;;;;;;6.60;1.30;;;;;;;17.31;45.18;100581.73;104703;1273;62109;-68
2022/05/17 06:01:39;;;;;;;6.00;1.10;;;;;;;17.92;43.70;100583.05;104726;1273;72125;-70
2022/05/17 06:04:29;;;;;;;5.40;1.30;;;;;;;18.52;42.34;100582.63;104596;1273;66719;-67
2022/05/17 06:07:20;;;;;;;7.00;1.40;;;;;;;18.70;41.15;100584.16;104611;1273;74421;-69
2022/05/17 06:10:10;;;;;;;6.00;1.10;;;;;;;18.49;40.90;100587.77;104580;1274;59330;-68
2022/05/17 06:12:57;;;;;;;5.80;1.20;;;;;;;18.45;40.96;100590.73;104614;1273;60483;-66
2022/05/17 06:15:46;;;;;;;6.10;1.10;;;;;;;19.04;39.80;100591.55;104804;1273;73470;-70
2022/05/17 06:18:35;;;;;;;16.00;8.60;;;;;;;19.31;38.64;100592.69;104804;1273;68521;-69
2022/05/17 06:21:23;;;;;;;16.00;9.10;;;;;;;19.27;38.72;100596.52;104656;1273;73197;-69
2022/05/17 06:24:11;;;;;;;8.40;2.70;;;;;;;20.18;37.14;100593.52;104678;1273;59603;-69
2022/05/17 06:27:01;;;;;;;9.80;3.30;;;;;;;21.18;34.77;100591.35;104717;1273;59433;-69
2022/05/17 06:29:49;;;;;;;7.80;2.50;;;;;;;21.39;33.55;100585.58;104689;1273;73546;-68
2022/05/17 06:32:38;;;;;;;5.80;1.50;;;;;;;21.38;33.60;100587.23;104676;1273;68849;-70
2022/05/17 06:35:26;;;;;;;6.20;1.30;;;;;;;22.15;32.62;100585.20;104724;1273;73824;-71
2022/05/17 06:38:14;;;;;;;6.70;1.50;;;;;;;23.10;31.14;100587.30;104664;1273;59850;-68
2022/05/17 06:41:04;;;;;;;7.30;2.70;;;;;;;24.19;29.70;100573.15;104656;1274;59306;-71
2022/05/17 06:43:52;;;;;;;6.90;1.50;;;;;;;24.99;27.43;100573.55;104853;1273;73489;-68
2022/05/17 06:46:40;;;;;;;12.40;3.20;;;;;;;25.20;26.04;100572.43;104688;1273;69635;-70
2022/05/17 06:49:29;;;;;;;7.70;1.20;;;;;;;25.98;25.94;100576.62;104613;1273;72696;-70
2022/05/17 06:52:17;;;;;;;6.70;1.10;;;;;;;26.65;24.78;100573.95;104901;1273;59316;-71
2022/05/17 06:55:06;;;;;;;5.50;1.00;;;;;;;26.35;24.72;100580.63;104686;1273;60498;-70
2022/05/17 06:57:55;;;;;;;5.00;1.10;;;;;;;26.69;23.86;100579.48;104619;1273;72033;-70
2022/05/17 07:00:43;;;;;;;5.50;1.10;;;;;;;26.99;23.96;100575.15;104644;1273;67902;-71
2022/05/17 07:03:30;;;;;;;6.60;1.10;;;;;;;26.87;23.20;100582.23;104702;1272;71847;-70
2022/05/17 07:06:18;;;;;;;6.00;1.00;;;;;;;26.82;22.96;100585.19;104683;1273;59859;-67
2022/05/17 07:09:08;;;;;;;5.80;1.00;;;;;;;27.09;21.94;100584.34;104692;1273;59494;-71
2022/05/17 07:15:09;;;;;;;5.40;1.30;;;;;;;26.72;21.08;100590.81;104639;1273;68214;-67
2022/05/17 07:18:01;;;;;;;5.60;1.00;;;;;;;26.36;21.32;100592.75;104664;1273;73028;-68
2022/05/17 07:20:50;;;;;;;5.50;1.60;;;;;;;26.25;20.92;100590.91;104737;1273;59282;-68
2022/05/17 07:23:42;;;;;;;4.90;1.00;;;;;;;26.19;21.00;100596.54;104682;1273;59435;-68
2022/05/17 07:26:30;;;;;;;10.50;1.00;;;;;;;26.01;21.38;100598.90;104672;1273;73044;-69
2022/05/17 07:29:19;;;;;;;5.40;0.80;;;;;;;25.67;21.27;100600.16;104731;1273;67935;-68
2022/05/17 07:32:07;;;;;;;6.20;2.30;;;;;;;25.54;21.66;100597.92;104774;1273;73431;-69
2022/05/17 07:34:55;;;;;;;5.60;1.40;;;;;;;25.25;21.48;100598.38;104679;1273;59718;-75
2022/05/17 07:37:42;;;;;;;9.10;1.40;;;;;;;25.15;21.95;100595.52;104765;1273;60531;-71
2022/05/17 07:40:31;;;;;;;5.60;1.10;;;;;;;24.93;21.92;100602.08;105028;1273;73975;-70
2022/05/17 07:43:19;;;;;;;5.30;1.10;;;;;;;24.60;22.60;100604.62;104788;1273;66801;-70
2022/05/17 07:46:08;;;;;;;6.60;2.00;;;;;;;24.32;22.20;100607.35;104693;1273;72466;-72
2022/05/17 07:48:57;;;;;;;5.40;1.40;;;;;;;24.62;21.30;100611.92;104687;1273;59339;-70
2022/05/17 07:51:45;;;;;;;4.30;0.90;;;;;;;24.96;21.43;100614.77;104772;1273;59271;-69
2022/05/17 07:54:33;;;;;;;6.20;1.20;;;;;;;24.83;21.42;100613.48;104787;1273;73146;-70
2022/05/17 07:57:23;;;;;;;7.40;1.40;;;;;;;24.98;20.87;100615.75;104780;1273;69120;-69
2022/05/17 08:00:12;;;;;;;7.80;1.30;;;;;;;25.13;20.08;100611.18;104791;1273;73772;-67
2022/05/17 08:03:00;;;;;;;7.70;2.30;;;;;;;25.43;20.14;100605.95;104690;1273;59266;-68
2022/05/17 08:05:52;;;;;;;9.70;2.80;;;;;;;25.85;18.78;100607.04;104753;1273;61192;-67
2022/05/17 08:08:46;;;;;;;15.20;2.40;;;;;;;26.32;18.69;100612.39;104840;1273;73872;-69
2022/05/17 08:11:37;;;;;;;9.20;1.70;;;;;;;26.53;18.35;100613.30;104648;1273;68619;-69
2022/05/17 08:14:25;;;;;;;12.50;1.60;;;;;;;26.76;17.76;100611.50;104930;1273;71937;-69
2022/05/17 08:17:14;;;;;;;7.70;1.70;;;;;;;26.92;17.71;100614.52;105042;1273;59295;-71
2022/05/17 08:20:09;;;;;;;13.00;6.80;;;;;;;27.00;17.18;100609.63;104763;1273;59443;-69
2022/05/17 08:22:57;;;;;;;5.90;1.60;;;;;;;27.17;16.92;100614.15;104456;1273;72900;-71
2022/05/17 08:28:52;;;;;;;7.00;1.00;;;;;;;27.44;16.86;100613.53;104906;1273;72871;-69
2022/05/17 08:31:40;;;;;;;6.00;1.20;;;;;;;27.61;16.93;100619.02;104772;1273;59738;-74
2022/05/17 08:34:28;;;;;;;6.30;1.30;;;;;;;27.88;15.48;100617.39;104808;1273;59371;-71
2022/05/17 08:37:16;;;;;;;8.10;1.30;;;;;;;27.87;15.03;100621.19;104784;1273;72818;-70
2022/05/17 08:40:07;;;;;;;7.60;1.20;;;;;;;28.00;15.38;100623.01;104702;1273;69568;-69
2022/05/17 08:43:01;;;;;;;8.80;1.40;;;;;;;27.91;15.29;100623.55;104655;1273;74416;-72
2022/05/17 08:46:25;;;;;;;4.30;0.90;;;;;;;28.10;15.03;100632.51;104740;1273;59442;-69
2022/05/17 08:49:31;;;;;;;11.00;2.40;;;;;;;28.37;14.48;100632.45;104670;1273;60535;-70
2022/05/17 08:52:22;;;;;;;4.80;1.00;;;;;;;28.51;14.35;100634.83;104893;1273;71791;-67
2022/05/17 08:55:33;;;;;;;6.30;0.70;;;;;;;28.51;13.72;100637.48;104663;1274;68725;-67
2022/05/17 08:58:28;;;;;;;6.70;0.90;;;;;;;28.41;13.88;100635.97;104758;1273;72663;-68
2022/05/17 09:01:32;;;;;;;8.90;2.00;;;;;;;28.62;14.10;100643.84;104697;1273;59392;-66
2022/05/17 09:04:46;;;;;;;6.60;1.20;;;;;;;28.78;13.70;100646.27;104687;1273;60490;-69
2022/05/17 09:08:28;;;;;;;9.30;0.90;;;;;;;29.19;13.42;100646.66;104904;1274;71873;-66
2022/05/17 09:11:26;;;;;;;4.30;0.70;;;;;;;29.73;12.32;100642.79;104949;1273;368322;-70
2022/05/17 09:14:22;;;;;;;4.60;0.70;;;;;;;29.49;12.92;100644.17;104817;1274;71239;-70
2022/05/17 09:17:21;;;;;;;6.10;1.30;;;;;;;29.22;13.01;100648.70;104899;1273;59649;-71
2022/05/17 09:20:13;;;;;;;7.60;1.10;;;;;;;28.89;13.26;100653.61;104930;1273;59400;-69
2022/05/17 09:23:03;;;;;;;8.10;1.30;;;;;;;28.34;13.34;100654.55;104684;1273;72303;-70
2022/05/17 09:26:17;;;;;;;9.00;1.20;;;;;;;28.12;14.07;100654.59;104685;1273;69418;-69
2022/05/17 09:29:18;;;;;;;13.50;1.60;;;;;;;27.90;14.08;100653.18;103941;1282;73381;-69
2022/05/17 09:32:11;;;;;;;11.20;1.70;;;;;;;27.51;14.31;100654.90;104189;1282;59303;-69
2022/05/17 09:35:17;;;;;;;15.80;5.30;;;;;;;27.34;14.25;100658.94;104171;1282;61000;-69
2022/05/17 09:38:07;;;;;;;13.30;4.30;;;;;;;27.37;14.12;100661.61;104087;1282;73119;-67
2022/05/17 09:40:57;;;;;;;7.50;1.30;;;;;;;27.46;13.99;100659.09;104282;1282;68416;-63
2022/05/17 09:43:55;;;;;;;9.30;1.20;;;;;;;27.49;13.88;100658.11;104004;1282;72160;-68
2022/05/17 09:46:47;;;;;;;3.50;0.60;;;;;;;27.31;14.01;100657.15;104113;1282;59708;-65
2022/05/17 09:53:10;;;;;;;6.10;0.90;;;;;;;27.05;14.61;100658.80;104481;1282;72937;-68
2022/05/17 09:56:06;;;;;;;5.20;0.90;;;;;;;27.05;14.11;100654.23;104447;1282;69594;-69
2022/05/17 09:58:54;;;;;;;7.00;0.80;;;;;;;26.66;14.10;100661.73;104245;1282;72796;-68
2022/05/17 10:01:42;;;;;;;4.70;1.00;;;;;;;26.48;14.26;100660.45;104066;1282;59736;-69
2022/05/17 10:04:30;;;;;;;6.50;0.80;;;;;;;26.46;14.26;100655.88;104323;1282;60970;-67
2022/05/17 10:07:21;;;;;;;7.40;1.00;;;;;;;26.64;14.17;100655.24;104625;1274;72733;-68
2022/05/17 10:10:35;;;;;;;4.50;0.90;;;;;;;26.90;13.96;100657.59;104700;1273;69070;-69
2022/05/17 10:13:58;;;;;;;5.80;1.00;;;;;;;27.14;13.87;100655.13;104859;1273;74450;-71
2022/05/17 10:16:54;;;;;;;4.10;1.00;;;;;;;27.27;13.58;100656.45;104605;1274;59795;-69
2022/05/17 10:20:07;;;;;;;4.90;0.70;;;;;;;27.07;13.64;100654.52;104627;1273;59710;-70
2022/05/17 10:23:03;;;;;;;5.00;0.80;;;;;;;26.85;14.03;100659.90;104736;1273;73785;-70
2022/05/17 10:26:18;;;;;;;5.60;1.20;;;;;;;26.93;14.18;100660.98;104605;1274;67037;-71
2022/05/17 10:29:45;;;;;;;10.00;5.00;;;;;;;27.04;13.83;100663.39;104877;1274;73569;-69
2022/05/17 10:32:38;;;;;;;6.40;1.20;;;;;;;27.01;13.99;100664.00;104977;1273;59910;-69
2022/05/17 10:35:35;;;;;;;8.30;4.80;;;;;;;27.30;13.81;100667.37;104873;1273;60358;-68
2022/05/17 10:38:34;;;;;;;4.70;0.90;;;;;;;27.40;13.28;100662.51;104736;1274;73941;-70
2022/05/17 10:41:24;;;;;;;5.10;1.20;;;;;;;27.39;13.35;100666.47;104884;1273;69685;-72
2022/05/17 10:44:18;;;;;;;4.80;1.00;;;;;;;27.64;13.31;100663.16;104652;1273;73409;-70
2022/05/17 10:47:25;;;;;;;3.10;0.70;;;;;;;28.04;12.74;100668.25;104647;1273;59411;-69
2022/05/17 10:50:43;;;;;;;4.40;0.90;;;;;;;28.48;12.23;100670.52;104689;1274;61978;-70
2022/05/17 10:54:04;;;;;;;5.20;1.00;;;;;;;28.78;12.33;100667.75;105002;1273;73914;-72
2022/05/17 10:57:02;;;;;;;5.30;0.90;;;;;;;28.90;12.00;100671.21;104736;1273;68468;-70
2022/05/17 11:00:19;;;;;;;3.90;0.80;;;;;;;29.02;11.88;100667.55;105012;1274;74437;-76
2022/05/17 11:03:54;;;;;;;4.70;0.90;;;;;;;29.09;11.29;100671.35;104908;1274;59807;-69
2022/05/17 11:07:25;;;;;;;4.60;0.90;;;;;;;28.88;11.30;100673.94;104946;1273;60539;-71
2022/05/17 11:10:53;;;;;;;4.00;0.90;;;;;;;28.37;11.48;100666.85;104798;1273;73150;-71
2022/05/17 11:13:53;;;;;;;5.20;0.90;;;;;;;27.77;12.09;100667.85;104920;1273;68939;-71
2022/05/17 11:17:21;;;;;;;4.80;1.10;;;;;;;26.92;12.45;100674.16;104736;1273;72241;-69
2022/05/17 11:20:32;;;;;;;5.60;1.30;;;;;;;25.80;13.08;100678.27;104767;1274;59619;-69
2022/05/17 11:23:53;;;;;;;4.50;0.90;;;;;;;24.90;13.75;100685.76;104907;1274;60966;-68
2022/05/17 11:27:36;;;;;;;4.60;0.90;;;;;;;24.35;14.57;100686.34;104927;1273;71781;-70
2022/05/17 11:30:35;;;;;;;5.40;1.50;;;;;;;23.86;15.13;100687.96;104247;1281;70059;-71
2022/05/17 11:33:38;;;;;;;6.80;1.00;;;;;;;23.33;15.56;100685.07;104311;1281;74211;-66
2022/05/17 11:36:31;;;;;;;5.00;1.20;;;;;;;22.84;16.26;100689.67;104327;1281;59753;-67
2022/05/17 11:39:31;;;;;;;4.00;0.90;;;;;;;22.38;17.12;100688.23;104217;1281;60550;-69
2022/05/17 11:42:34;;;;;;;4.00;0.70;;;;;;;21.88;17.66;100690.89;104157;1281;73089;-68
2022/05/17 11:45:45;;;;;;;6.30;1.00;;;;;;;21.26;18.44;100695.98;104294;1281;68577;-67
2022/05/17 11:48:46;;;;;;;5.00;1.00;;;;;;;20.46;19.18;100701.58;104259;1281;73022;-71
2022/05/17 11:51:40;;;;;;;7.30;1.00;;;;;;;19.72;20.59;100702.35;104180;1281;60282;-68
2022/05/17 11:54:45;;;;;;;10.10;1.10;;;;;;;19.13;20.69;100704.11;104457;1281;61562;-69
2022/05/17 11:57:41;;;;;;;5.50;1.40;;;;;;;18.35;22.08;100705.27;104390;1281;72761;-69
2022/05/17 12:00:32;;;;;;;5.30;1.10;;;;;;;17.87;22.89;100701.58;104222;1281;68545;-70
2022/05/17 12:03:51;;;;;;;4.30;1.00;;;;;;;17.42;23.34;100701.36;104235;1281;73498;-68
2022/05/17 12:06:41;;;;;;;5.20;1.00;;;;;;;16.89;24.25;100698.48;104649;1274;59646;-68
2022/05/17 12:09:52;;;;;;;4.40;0.90;;;;;;;16.66;24.71;100696.89;105152;1273;59246;-69
2022/05/17 12:12:42;;;;;;;5.60;1.20;;;;;;;16.29;25.58;100708.52;104681;1273;74045;-69
2022/05/17 12:15:48;;;;;;;4.40;1.00;;;;;;;16.02;26.37;100707.71;104773;1273;66853;-68
2022/05/17 12:18:51;;;;;;;7.80;1.20;;;;;;;15.80;26.33;100707.50;104828;1273;72374;-68
2022/05/17 12:22:06;;;;;;;6.70;1.00;;;;;;;15.73;27.03;100708.16;104594;1274;59648;-67
2022/05/17 12:25:07;;;;;;;6.10;1.10;;;;;;;15.74;27.46;100710.23;104862;1273;61731;-67
2022/05/17 12:27:55;;;;;;;7.60;1.50;;;;;;;15.80;27.37;100710.07;104982;1274;72495;-69
2022/05/17 12:30:59;;;;;;;7.40;1.40;;;;;;;15.73;26.97;100710.63;104680;1274;67959;-66
2022/05/17 12:33:49;;;;;;;7.90;1.60;;;;;;;15.56;27.52;100713.47;104863;1274;72334;-69
2022/05/17 12:36:39;;;;;;;7.70;1.50;;;;;;;15.43;27.63;100710.46;104710;1274;59273;-67
2022/05/17 12:45:58;;;;;;;5.60;1.00;;;;;;;15.27;28.81;100711.86;104782;1274;69400;-70
2022/05/17 12:48:47;;;;;;;5.30;1.20;;;;;;;15.26;29.56;100714.09;104704;1273;72379;-68
2022/05/17 12:51:35;;;;;;;9.20;1.20;;;;;;;15.21;30.26;100716.16;104832;1273;59380;-69
2022/05/17 12:54:31;;;;;;;5.90;1.00;;;;;;;15.23;30.43;100719.89;104770;1273;62110;-68
2022/05/17 12:57:38;;;;;;;7.40;1.20;;;;;;;15.15;30.93;100723.95;105088;1274;72551;-69
2022/05/17 13:00:31;;;;;;;4.80;0.90;;;;;;;15.11;31.97;100721.83;104933;1273;67726;-68
2022/05/17 13:03:24;;;;;;;5.70;1.10;;;;;;;15.07;31.92;100721.45;105005;1274;73263;-68
2022/05/17 13:06:14;;;;;;;4.20;1.00;;;;;;;15.05;33.06;100724.45;104882;1274;59298;-66
2022/05/17 13:09:06;;;;;;;5.70;1.00;;;;;;;15.07;33.76;100726.95;104695;1273;60264;-66
2022/05/17 13:11:59;;;;;;;5.40;1.10;;;;;;;15.01;33.47;100727.11;104878;1274;72259;-70
2022/05/17 13:14:52;;;;;;;6.90;1.10;;;;;;;14.95;33.14;100727.84;104982;1273;69577;-69
2022/05/17 13:17:43;;;;;;;5.50;1.10;;;;;;;14.94;33.23;100730.19;104743;1273;71298;-67
2022/05/17 13:20:32;;;;;;;4.50;1.00;;;;;;;14.97;33.16;100727.31;104736;1274;60862;-68
2022/05/17 13:23:26;;;;;;;4.90;1.10;;;;;;;14.96;33.02;100728.06;104748;1274;59384;-72
2022/05/17 13:26:24;;;;;;;3.90;0.80;;;;;;;14.91;33.13;100733.52;104689;1274;71773;-67
2022/05/17 13:29:35;;;;;;;6.60;1.00;;;;;;;14.90;33.31;100732.71;104652;1274;67635;-66
2022/05/17 13:32:29;;;;;;;3.50;0.80;;;;;;;14.90;33.56;100733.64;104889;1273;71914;-69
2022/05/17 13:35:29;;;;;;;4.70;1.00;;;;;;;14.91;33.43;100739.21;104867;1273;59410;-67
2022/05/17 13:38:17;;;;;;;4.60;1.00;;;;;;;14.89;33.69;100738.48;105052;1273;59480;-70